sensor_id;sensor_type;location;lat;lon;timestamp;temperature;humidity
46458;DHT22;32155;54.076;12.092;2022-12-18T14:38:38;-5.00;99.90
46458;DHT22;32155;54.076;12.092;2022-12-18T14:41:17;-5.00;99.90
46458;DHT22;32155;54.076;12.092;2022-12-18T14:43:46;-5.10;99.90
46458;DHT22;32155;54.076;12.092;2022-12-18T14:46:35;-5.10;99.90
46458;DHT22;32155;54.076;12.092;2022-12-18T14:49:24;-5.10;99.90
46458;DHT22;32155;54.076;12.092;2022-12-18T14:52:26;-5.20;99.90
46458;DHT22;32155;54.076;12.092;2022-12-18T14:54:53;-5.20;99.90
46458;DHT22;32155;54.076;12.092;2022-12-18T14:57:25;-5.30;99.90
46458;DHT22;32155;54.076;12.092;2022-12-18T14:59:52;-5.30;99.90
46458;DHT22;32155;54.076;12.092;2022-12-18T15:02:26;-5.30;99.90
46458;DHT22;32155;54.076;12.092;2022-12-18T15:05:05;-5.40;99.90
46458;DHT22;32155;54.076;12.092;2022-12-18T15:07:46;-5.40;99.90
46458;DHT22;32155;54.076;12.092;2022-12-18T15:10:21;-5.40;99.90
46458;DHT22;32155;54.076;12.092;2022-12-18T15:13:05;-5.30;99.90
46458;DHT22;32155;54.076;12.092;2022-12-18T15:26:15;-5.30;99.90
46458;DHT22;32155;54.076;12.092;2022-12-18T15:33:45;-5.40;99.90
46458;DHT22;32155;54.076;12.092;2022-12-18T15:36:27;-5.40;99.90
46458;DHT22;32155;54.076;12.092;2022-12-18T15:38:55;-5.40;99.90
46458;DHT22;32155;54.076;12.092;2022-12-18T15:41:22;-5.50;99.90
46458;DHT22;32155;54.076;12.092;2022-12-18T15:43:49;-5.40;99.90
46458;DHT22;32155;54.076;12.092;2022-12-18T15:46:17;-5.50;99.90
46458;DHT22;32155;54.076;12.092;2022-12-18T15:48:54;-5.50;99.90
46458;DHT22;32155;54.076;12.092;2022-12-18T15:53:47;-5.50;99.90
46458;DHT22;32155;54.076;12.092;2022-12-18T15:56:15;-5.50;99.90
46458;DHT22;32155;54.076;12.092;2022-12-18T15:59:00;-5.50;99.90
46458;DHT22;32155;54.076;12.092;2022-12-18T16:01:28;-5.60;99.90
46458;DHT22;32155;54.076;12.092;2022-12-18T16:03:54;-5.50;99.90
46458;DHT22;32155;54.076;12.092;2022-12-18T16:06:21;-5.60;99.90
46458;DHT22;32155;54.076;12.092;2022-12-18T16:08:46;-5.60;99.90
46458;DHT22;32155;54.076;12.092;2022-12-18T16:11:36;-5.60;99.90
46458;DHT22;32155;54.076;12.092;2022-12-18T16:16:53;-5.70;99.90
46458;DHT22;32155;54.076;12.092;2022-12-18T16:19:20;-5.70;99.90
46458;DHT22;32155;54.076;12.092;2022-12-18T16:21:47;-5.70;99.90
46458;DHT22;32155;54.076;12.092;2022-12-18T16:24:24;-5.70;99.90
46458;DHT22;32155;54.076;12.092;2022-12-18T16:26:51;-5.80;99.90
46458;DHT22;32155;54.076;12.092;2022-12-18T16:29:23;-5.90;99.90
46458;DHT22;32155;54.076;12.092;2022-12-18T16:31:53;-5.90;99.90
46458;DHT22;32155;54.076;12.092;2022-12-18T16:34:28;-5.80;99.90
46458;DHT22;32155;54.076;12.092;2022-12-18T16:36:56;-5.80;99.90
46458;DHT22;32155;54.076;12.092;2022-12-18T16:39:22;-5.80;99.90
46458;DHT22;32155;54.076;12.092;2022-12-18T16:41:48;-5.80;99.90
46458;DHT22;32155;54.076;12.092;2022-12-18T16:44:16;-5.90;99.90
46458;DHT22;32155;54.076;12.092;2022-12-18T16:46:42;-5.90;99.90
46458;DHT22;32155;54.076;12.092;2022-12-18T16:49:14;-5.90;99.90
46458;DHT22;32155;54.076;12.092;2022-12-18T16:51:40;-6.00;99.90
46458;DHT22;32155;54.076;12.092;2022-12-18T16:54:06;-5.90;99.90
46458;DHT22;32155;54.076;12.092;2022-12-18T16:56:32;-5.80;99.90
46458;DHT22;32155;54.076;12.092;2022-12-18T16:58:59;-5.90;99.90
46458;DHT22;32155;54.076;12.092;2022-12-18T17:01:26;-6.00;99.90
46458;DHT22;32155;54.076;12.092;2022-12-18T17:04:00;-5.90;99.90
46458;DHT22;32155;54.076;12.092;2022-12-18T17:06:28;-5.90;99.90
46458;DHT22;32155;54.076;12.092;2022-12-18T17:08:55;-5.90;99.90
46458;DHT22;32155;54.076;12.092;2022-12-18T17:11:23;-6.00;99.90
46458;DHT22;32155;54.076;12.092;2022-12-18T17:13:49;-6.00;99.90
46458;DHT22;32155;54.076;12.092;2022-12-18T17:16:15;-5.90;99.90
46458;DHT22;32155;54.076;12.092;2022-12-18T17:18:42;-6.00;99.90
46458;DHT22;32155;54.076;12.092;2022-12-18T17:21:09;-6.00;99.90
46458;DHT22;32155;54.076;12.092;2022-12-18T17:23:35;-6.10;99.90
46458;DHT22;32155;54.076;12.092;2022-12-18T17:26:02;-6.10;99.90
46458;DHT22;32155;54.076;12.092;2022-12-18T17:28:30;-6.20;99.90
46458;DHT22;32155;54.076;12.092;2022-12-18T17:30:59;-6.20;99.90
46458;DHT22;32155;54.076;12.092;2022-12-18T17:33:28;-6.20;99.90
46458;DHT22;32155;54.076;12.092;2022-12-18T17:35:57;-6.20;99.90
46458;DHT22;32155;54.076;12.092;2022-12-18T17:38:24;-6.30;99.90
46458;DHT22;32155;54.076;12.092;2022-12-18T17:40:52;-6.20;99.90
46458;DHT22;32155;54.076;12.092;2022-12-18T17:43:20;-6.30;99.90
46458;DHT22;32155;54.076;12.092;2022-12-18T17:45:45;-6.30;99.90
46458;DHT22;32155;54.076;12.092;2022-12-18T17:48:11;-6.20;99.90
46458;DHT22;32155;54.076;12.092;2022-12-18T17:50:39;-6.20;99.90
46458;DHT22;32155;54.076;12.092;2022-12-18T17:53:04;-6.20;99.90
46458;DHT22;32155;54.076;12.092;2022-12-18T17:55:30;-6.20;99.90
46458;DHT22;32155;54.076;12.092;2022-12-18T17:57:58;-6.20;99.90
46458;DHT22;32155;54.076;12.092;2022-12-18T18:00:24;-6.20;99.90
46458;DHT22;32155;54.076;12.092;2022-12-18T18:02:49;-6.20;99.90
46458;DHT22;32155;54.076;12.092;2022-12-18T18:05:15;-6.10;99.90
46458;DHT22;32155;54.076;12.092;2022-12-18T18:07:41;-6.10;99.90
46458;DHT22;32155;54.076;12.092;2022-12-18T18:10:07;-6.10;99.90
46458;DHT22;32155;54.076;12.092;2022-12-18T18:12:33;-6.10;99.90
46458;DHT22;32155;54.076;12.092;2022-12-18T18:15:17;-6.10;99.90
46458;DHT22;32155;54.076;12.092;2022-12-18T18:17:43;-6.10;99.90
46458;DHT22;32155;54.076;12.092;2022-12-18T18:20:09;-6.10;99.90
46458;DHT22;32155;54.076;12.092;2022-12-18T18:22:35;-6.10;99.90
46458;DHT22;32155;54.076;12.092;2022-12-18T18:25:01;-6.10;99.90
46458;DHT22;32155;54.076;12.092;2022-12-18T18:27:30;-6.10;99.90
46458;DHT22;32155;54.076;12.092;2022-12-18T18:29:56;-6.00;99.90
46458;DHT22;32155;54.076;12.092;2022-12-18T18:32:24;-6.10;99.90
46458;DHT22;32155;54.076;12.092;2022-12-18T18:34:49;-6.00;99.90
46458;DHT22;32155;54.076;12.092;2022-12-18T18:37:17;-6.00;99.90
46458;DHT22;32155;54.076;12.092;2022-12-18T18:39:43;-6.00;99.90
46458;DHT22;32155;54.076;12.092;2022-12-18T18:42:08;-6.00;99.90
46458;DHT22;32155;54.076;12.092;2022-12-18T18:44:34;-6.00;99.90
46458;DHT22;32155;54.076;12.092;2022-12-18T18:47:00;-6.00;99.90
46458;DHT22;32155;54.076;12.092;2022-12-18T18:49:26;-6.10;99.90
46458;DHT22;32155;54.076;12.092;2022-12-18T18:51:56;-6.00;99.90
46458;DHT22;32155;54.076;12.092;2022-12-18T18:54:23;-6.00;99.90
46458;DHT22;32155;54.076;12.092;2022-12-18T18:56:51;-5.90;99.90
46458;DHT22;32155;54.076;12.092;2022-12-18T18:59:17;-6.00;99.90
46458;DHT22;32155;54.076;12.092;2022-12-18T19:01:42;-5.90;99.90
46458;DHT22;32155;54.076;12.092;2022-12-18T19:04:08;-5.90;99.90
46458;DHT22;32155;54.076;12.092;2022-12-18T19:06:34;-5.90;99.90
46458;DHT22;32155;54.076;12.092;2022-12-18T19:09:02;-6.00;99.90
46458;DHT22;32155;54.076;12.092;2022-12-18T19:11:29;-6.00;99.90
46458;DHT22;32155;54.076;12.092;2022-12-18T19:14:14;-6.00;99.90
46458;DHT22;32155;54.076;12.092;2022-12-18T19:16:40;-6.00;99.90
46458;DHT22;32155;54.076;12.092;2022-12-18T19:19:07;-6.00;99.90
46458;DHT22;32155;54.076;12.092;2022-12-18T19:21:33;-6.00;99.90
46458;DHT22;32155;54.076;12.092;2022-12-18T19:23:59;-5.90;99.90
46458;DHT22;32155;54.076;12.092;2022-12-18T19:26:26;-5.90;99.90
46458;DHT22;32155;54.076;12.092;2022-12-18T19:28:53;-5.90;99.90
46458;DHT22;32155;54.076;12.092;2022-12-18T19:31:21;-5.80;99.90
46458;DHT22;32155;54.076;12.092;2022-12-18T19:33:47;-5.80;99.90
46458;DHT22;32155;54.076;12.092;2022-12-18T19:36:21;-5.80;99.90
46458;DHT22;32155;54.076;12.092;2022-12-18T19:38:48;-5.80;99.90
46458;DHT22;32155;54.076;12.092;2022-12-18T19:41:16;-5.80;99.90
46458;DHT22;32155;54.076;12.092;2022-12-18T19:43:43;-5.70;99.90
46458;DHT22;32155;54.076;12.092;2022-12-18T19:46:11;-5.60;99.90
46458;DHT22;32155;54.076;12.092;2022-12-18T19:48:38;-5.70;99.90
46458;DHT22;32155;54.076;12.092;2022-12-18T19:51:09;-5.70;99.90
46458;DHT22;32155;54.076;12.092;2022-12-18T19:53:35;-5.60;99.90
46458;DHT22;32155;54.076;12.092;2022-12-18T19:56:08;-5.70;99.90
46458;DHT22;32155;54.076;12.092;2022-12-18T19:58:38;-5.60;99.90
46458;DHT22;32155;54.076;12.092;2022-12-18T20:01:04;-5.70;99.90
46458;DHT22;32155;54.076;12.092;2022-12-18T20:03:33;-5.70;99.90
46458;DHT22;32155;54.076;12.092;2022-12-18T20:08:46;-5.60;99.90
46458;DHT22;32155;54.076;12.092;2022-12-18T20:11:14;-5.60;99.90
46458;DHT22;32155;54.076;12.092;2022-12-18T20:13:42;-5.60;99.90
46458;DHT22;32155;54.076;12.092;2022-12-18T20:16:07;-5.60;99.90
46458;DHT22;32155;54.076;12.092;2022-12-18T20:18:33;-5.60;99.90
46458;DHT22;32155;54.076;12.092;2022-12-18T20:21:01;-5.60;99.90
46458;DHT22;32155;54.076;12.092;2022-12-18T20:23:27;-5.60;99.90
46458;DHT22;32155;54.076;12.092;2022-12-18T20:25:53;-5.50;99.90
46458;DHT22;32155;54.076;12.092;2022-12-18T20:28:21;-5.50;99.90
46458;DHT22;32155;54.076;12.092;2022-12-18T20:30:47;-5.50;99.90
46458;DHT22;32155;54.076;12.092;2022-12-18T20:33:13;-5.50;99.90
46458;DHT22;32155;54.076;12.092;2022-12-18T20:35:39;-5.50;99.90
46458;DHT22;32155;54.076;12.092;2022-12-18T20:38:05;-5.50;99.90
46458;DHT22;32155;54.076;12.092;2022-12-18T20:40:32;-5.50;99.90
46458;DHT22;32155;54.076;12.092;2022-12-18T20:42:57;-5.50;99.90
46458;DHT22;32155;54.076;12.092;2022-12-18T20:45:23;-5.40;99.90
46458;DHT22;32155;54.076;12.092;2022-12-18T20:47:56;-5.40;99.90
46458;DHT22;32155;54.076;12.092;2022-12-18T20:50:22;-5.40;99.90
46458;DHT22;32155;54.076;12.092;2022-12-18T20:52:50;-5.40;99.90
46458;DHT22;32155;54.076;12.092;2022-12-18T20:55:16;-5.40;99.90
46458;DHT22;32155;54.076;12.092;2022-12-18T20:57:42;-5.40;99.90
46458;DHT22;32155;54.076;12.092;2022-12-18T21:00:08;-5.30;99.90
46458;DHT22;32155;54.076;12.092;2022-12-18T21:02:35;-5.30;99.90
46458;DHT22;32155;54.076;12.092;2022-12-18T21:05:02;-5.30;99.90
46458;DHT22;32155;54.076;12.092;2022-12-18T21:07:37;-5.30;99.90
46458;DHT22;32155;54.076;12.092;2022-12-18T21:10:08;-5.20;99.90
46458;DHT22;32155;54.076;12.092;2022-12-18T21:12:34;-5.20;99.90
46458;DHT22;32155;54.076;12.092;2022-12-18T21:15:03;-5.20;99.90
46458;DHT22;32155;54.076;12.092;2022-12-18T21:17:30;-5.20;99.90
46458;DHT22;32155;54.076;12.092;2022-12-18T21:19:56;-5.20;99.90
46458;DHT22;32155;54.076;12.092;2022-12-18T21:22:24;-5.20;99.90
46458;DHT22;32155;54.076;12.092;2022-12-18T21:24:50;-5.20;99.90
46458;DHT22;32155;54.076;12.092;2022-12-18T21:27:16;-5.20;99.90
46458;DHT22;32155;54.076;12.092;2022-12-18T21:29:42;-5.10;99.90
46458;DHT22;32155;54.076;12.092;2022-12-18T21:32:13;-5.10;99.90
46458;DHT22;32155;54.076;12.092;2022-12-18T21:34:39;-5.10;99.90
46458;DHT22;32155;54.076;12.092;2022-12-18T21:39:32;-5.20;99.90
46458;DHT22;32155;54.076;12.092;2022-12-18T21:41:59;-5.10;99.90
46458;DHT22;32155;54.076;12.092;2022-12-18T21:44:46;-5.10;99.90
46458;DHT22;32155;54.076;12.092;2022-12-18T21:47:13;-5.10;99.90
46458;DHT22;32155;54.076;12.092;2022-12-18T21:49:39;-5.10;99.90
46458;DHT22;32155;54.076;12.092;2022-12-18T21:52:08;-5.00;99.90
46458;DHT22;32155;54.076;12.092;2022-12-18T21:54:34;-5.00;99.90
46458;DHT22;32155;54.076;12.092;2022-12-18T21:57:03;-5.00;99.90
46458;DHT22;32155;54.076;12.092;2022-12-18T21:59:34;-5.00;99.90
46458;DHT22;32155;54.076;12.092;2022-12-18T22:02:05;-4.90;99.90
46458;DHT22;32155;54.076;12.092;2022-12-18T22:04:31;-4.90;99.90
46458;DHT22;32155;54.076;12.092;2022-12-18T22:06:59;-4.90;99.90
46458;DHT22;32155;54.076;12.092;2022-12-18T22:09:25;-4.90;99.90
46458;DHT22;32155;54.076;12.092;2022-12-18T22:11:52;-4.90;99.90
46458;DHT22;32155;54.076;12.092;2022-12-18T22:14:18;-4.80;99.90
46458;DHT22;32155;54.076;12.092;2022-12-18T22:16:44;-4.80;99.90
46458;DHT22;32155;54.076;12.092;2022-12-18T22:19:10;-4.80;99.90
46458;DHT22;32155;54.076;12.092;2022-12-18T22:21:38;-4.80;99.90
46458;DHT22;32155;54.076;12.092;2022-12-18T22:24:06;-4.80;99.90
46458;DHT22;32155;54.076;12.092;2022-12-18T22:26:34;-4.80;99.90
46458;DHT22;32155;54.076;12.092;2022-12-18T22:29:00;-4.80;99.90
46458;DHT22;32155;54.076;12.092;2022-12-18T22:31:45;-4.70;99.90
46458;DHT22;32155;54.076;12.092;2022-12-18T22:34:11;-4.80;99.90
46458;DHT22;32155;54.076;12.092;2022-12-18T22:36:41;-4.80;99.90
46458;DHT22;32155;54.076;12.092;2022-12-18T22:39:13;-4.70;99.90
46458;DHT22;32155;54.076;12.092;2022-12-18T22:41:39;-4.80;99.90
46458;DHT22;32155;54.076;12.092;2022-12-18T22:44:04;-4.70;99.90
46458;DHT22;32155;54.076;12.092;2022-12-18T22:46:33;-4.70;99.90
46458;DHT22;32155;54.076;12.092;2022-12-18T22:49:00;-4.70;99.90
46458;DHT22;32155;54.076;12.092;2022-12-18T22:51:26;-4.70;99.90
46458;DHT22;32155;54.076;12.092;2022-12-18T22:53:54;-4.70;99.90
46458;DHT22;32155;54.076;12.092;2022-12-18T22:56:24;-4.60;99.90
46458;DHT22;32155;54.076;12.092;2022-12-18T22:58:50;-4.60;99.90
46458;DHT22;32155;54.076;12.092;2022-12-18T23:01:23;-4.60;99.90
46458;DHT22;32155;54.076;12.092;2022-12-18T23:03:51;-4.60;99.90
46458;DHT22;32155;54.076;12.092;2022-12-18T23:06:21;-4.60;99.90
46458;DHT22;32155;54.076;12.092;2022-12-18T23:08:50;-4.60;99.90
46458;DHT22;32155;54.076;12.092;2022-12-18T23:11:17;-4.60;99.90
46458;DHT22;32155;54.076;12.092;2022-12-18T23:13:53;-4.60;99.90
46458;DHT22;32155;54.076;12.092;2022-12-18T23:16:20;-4.60;99.90
46458;DHT22;32155;54.076;12.092;2022-12-18T23:18:55;-4.60;99.90
46458;DHT22;32155;54.076;12.092;2022-12-18T23:21:22;-4.60;99.90
46458;DHT22;32155;54.076;12.092;2022-12-18T23:23:49;-4.60;99.90
46458;DHT22;32155;54.076;12.092;2022-12-18T23:26:22;-4.50;99.90
46458;DHT22;32155;54.076;12.092;2022-12-18T23:28:52;-4.50;99.90
46458;DHT22;32155;54.076;12.092;2022-12-18T23:31:26;-4.50;99.90
46458;DHT22;32155;54.076;12.092;2022-12-18T23:33:55;-4.50;99.90
46458;DHT22;32155;54.076;12.092;2022-12-18T23:36:22;-4.40;99.90
46458;DHT22;32155;54.076;12.092;2022-12-18T23:38:50;-4.40;99.90
46458;DHT22;32155;54.076;12.092;2022-12-18T23:41:20;-4.40;99.90
46458;DHT22;32155;54.076;12.092;2022-12-18T23:43:49;-4.40;99.90
46458;DHT22;32155;54.076;12.092;2022-12-18T23:46:22;-4.30;99.90
46458;DHT22;32155;54.076;12.092;2022-12-18T23:48:51;-4.30;99.90
46458;DHT22;32155;54.076;12.092;2022-12-18T23:51:18;-4.30;99.90
46458;DHT22;32155;54.076;12.092;2022-12-18T23:53:47;-4.30;99.90
46458;DHT22;32155;54.076;12.092;2022-12-18T23:56:14;-4.20;99.90
46458;DHT22;32155;54.076;12.092;2022-12-18T23:58:41;-4.20;99.90
